createdAt,value
2022-08-03T09:36:37.546Z,101036.78
2022-08-03T09:39:10.906Z,101037.75
2022-08-03T09:41:44.581Z,101037.91
2022-08-03T09:44:16.229Z,101032.56
2022-08-03T09:46:56.392Z,101028.97
2022-08-03T09:49:25.482Z,101028.28
2022-08-03T09:52:32.933Z,101024.28
2022-08-03T09:54:43.569Z,101019.19
2022-08-03T09:57:24.761Z,101029.69
2022-08-03T10:00:02.954Z,101028.53
2022-08-03T10:02:44.698Z,101026.59
2022-08-03T10:05:17.533Z,101020.03
2022-08-03T10:07:50.618Z,101011.22
2022-08-03T10:10:30.496Z,101015.06
2022-08-03T10:13:00.573Z,101011.50
2022-08-03T10:16:21.662Z,101006.22
2022-08-03T10:18:17.034Z,101013.56
2022-08-03T10:20:50.148Z,101001.97
2022-08-03T10:23:19.008Z,100994.81
2022-08-03T10:25:49.621Z,101005.13
2022-08-03T10:28:19.813Z,100988.34
2022-08-03T10:30:53.624Z,100992.94
2022-08-03T10:33:49.891Z,100994.16
2022-08-03T10:36:14.538Z,100995.66
2022-08-03T10:38:52.674Z,100994.06
2022-08-03T10:41:22.370Z,100990.59
2022-08-03T10:44:13.372Z,100982.13
2022-08-03T10:46:45.235Z,100981.91
2022-08-03T10:49:34.501Z,100980.78
2022-08-03T10:52:12.932Z,100977.19
2022-08-03T10:55:11.266Z,100979.34
2022-08-03T10:57:46.432Z,100975.41
2022-08-03T11:00:27.365Z,100966.66
2022-08-03T11:03:07.220Z,100971.53
2022-08-03T11:05:40.620Z,100966.72
2022-08-03T11:08:24.746Z,100967.28
2022-08-03T11:11:14.223Z,100976.16
2022-08-03T11:14:00.769Z,100966.91
2022-08-03T11:16:29.532Z,100965.94
2022-08-03T11:19:07.808Z,100972.00
2022-08-03T11:21:50.953Z,100953.94
2022-08-03T11:24:36.945Z,100962.09
2022-08-03T11:27:20.821Z,100957.59
2022-08-03T11:29:55.146Z,100953.97
2022-08-03T11:32:38.349Z,100951.06
2022-08-03T11:35:17.065Z,100961.53
2022-08-03T11:38:08.775Z,100947.06
2022-08-03T11:40:39.169Z,100943.63
2022-08-03T11:43:25.734Z,100950.75
2022-08-03T11:46:06.506Z,100955.78
2022-08-03T11:48:34.633Z,100939.84
2022-08-03T11:51:06.976Z,100947.47
2022-08-03T11:53:42.127Z,100950.31
2022-08-03T11:56:12.780Z,100940.13
2022-08-03T11:59:17.209Z,100930.72
2022-08-03T12:01:42.498Z,100929.13
2022-08-03T12:04:11.968Z,100931.09
2022-08-03T12:06:55.357Z,100930.56
2022-08-03T12:09:23.537Z,100932.75
2022-08-03T12:12:00.654Z,100920.00
2022-08-03T12:14:48.539Z,100919.69
2022-08-03T12:17:18.700Z,100921.84
2022-08-03T12:19:47.377Z,100922.13
2022-08-03T12:22:16.935Z,100916.56
2022-08-03T12:24:46.763Z,100916.25
2022-08-03T12:27:25.513Z,100920.63
2022-08-03T12:29:57.300Z,100917.50
2022-08-03T12:32:28.304Z,100907.03
2022-08-03T12:35:01.072Z,100919.00
2022-08-03T12:37:29.575Z,100907.47
2022-08-03T12:40:07.731Z,100912.75
2022-08-03T12:42:39.719Z,100915.91
2022-08-03T12:45:24.490Z,100912.47
2022-08-03T12:47:55.871Z,100913.84
2022-08-03T12:50:43.758Z,100917.03
2022-08-03T12:53:11.546Z,100904.22
2022-08-03T12:55:57.943Z,100907.19
2022-08-03T12:58:40.072Z,100911.75
2022-08-03T13:01:10.499Z,100910.47
2022-08-03T13:03:50.274Z,100907.91
2022-08-03T13:06:25.238Z,100911.59
2022-08-03T13:09:06.662Z,100902.66
2022-08-03T13:11:57.258Z,100898.53
2022-08-03T13:14:23.725Z,100903.78
2022-08-03T13:16:51.425Z,100895.47
2022-08-03T13:19:19.108Z,100894.31
2022-08-03T13:22:03.721Z,100888.63
2022-08-03T13:24:33.133Z,100891.69
2022-08-03T13:27:58.851Z,100897.28
2022-08-03T13:29:49.084Z,100884.75
2022-08-03T13:32:17.046Z,100881.25
2022-08-03T13:34:44.572Z,100876.75
2022-08-03T13:37:12.632Z,100883.09
2022-08-03T13:39:57.762Z,100879.88
2022-08-03T13:42:29.684Z,100869.72
2022-08-03T13:44:57.770Z,100872.94
2022-08-03T13:47:25.482Z,100870.00
2022-08-03T13:49:54.258Z,100866.94
2022-08-03T13:52:32.158Z,100867.63
2022-08-03T13:55:00.396Z,100858.47
2022-08-03T13:58:04.185Z,100866.00
2022-08-03T14:00:27.025Z,100864.13
2022-08-03T14:03:09.578Z,100850.66
2022-08-03T14:05:42.962Z,100855.28
2022-08-03T14:08:11.429Z,100849.69
2022-08-03T14:10:43.181Z,100850.91
2022-08-03T14:13:12.367Z,100844.19
2022-08-03T14:15:40.526Z,100837.44
2022-08-03T14:18:12.780Z,100834.25
2022-08-03T14:20:49.102Z,100833.94
2022-08-03T14:23:22.143Z,100831.34
2022-08-03T14:25:51.583Z,100831.19
2022-08-03T14:28:24.824Z,100827.56
2022-08-03T14:30:54.791Z,100826.91
2022-08-03T14:33:22.923Z,100827.09
2022-08-03T14:35:52.040Z,100821.38
2022-08-03T14:38:20.143Z,100817.50
2022-08-03T14:40:48.633Z,100829.03
2022-08-03T14:43:18.234Z,100816.81
2022-08-03T14:45:46.295Z,100817.84
2022-08-03T14:50:31.790Z,100808.72
2022-08-03T14:51:04.461Z,100812.91
2022-08-03T14:53:32.589Z,100808.00
2022-08-03T14:56:00.576Z,100808.81
2022-08-03T14:58:28.828Z,100799.94
2022-08-03T15:00:56.857Z,100802.66
2022-08-03T15:03:25.580Z,100795.72
2022-08-03T15:05:55.461Z,100789.31
2022-08-03T15:08:24.827Z,100800.63
2022-08-03T15:10:54.517Z,100796.44
2022-08-03T15:13:22.829Z,100791.75
2022-08-03T15:15:51.923Z,100787.44
2022-08-03T15:18:20.661Z,100782.63
2022-08-03T15:20:50.510Z,100778.03
2022-08-03T15:23:18.776Z,100777.28
2022-08-03T15:26:31.864Z,100781.66
2022-08-03T15:28:37.473Z,100776.94
2022-08-03T15:31:06.784Z,100781.31
2022-08-03T15:33:35.258Z,100773.13
2022-08-03T15:36:04.246Z,100777.16
2022-08-03T15:38:32.151Z,100778.25
2022-08-03T15:41:00.417Z,100766.59
2022-08-03T15:43:28.381Z,100766.09
2022-08-03T15:46:27.665Z,100764.81
2022-08-03T15:48:44.150Z,100760.13
2022-08-03T15:51:12.448Z,100757.94
2022-08-03T15:53:40.399Z,100752.66
2022-08-03T15:56:14.240Z,100754.00
2022-08-03T15:59:10.751Z,100753.34
2022-08-03T16:01:31.774Z,100750.34
2022-08-03T16:03:59.855Z,100753.88
2022-08-03T16:06:29.585Z,100752.19
2022-08-03T16:09:24.069Z,100743.50
2022-08-03T16:11:55.651Z,100742.69
2022-08-03T16:14:32.085Z,100732.94
2022-08-03T16:17:01.281Z,100735.22
2022-08-03T16:19:29.131Z,100740.00
2022-08-03T16:21:57.092Z,100738.06
2022-08-03T16:24:27.710Z,100738.31
2022-08-03T16:26:56.850Z,100738.78
2022-08-03T16:29:24.859Z,100732.28
2022-08-03T16:31:53.006Z,100737.13
2022-08-03T16:34:21.350Z,100728.25
2022-08-03T16:36:49.343Z,100732.44
2022-08-03T16:39:17.215Z,100730.94
2022-08-03T16:41:53.621Z,100727.19
2022-08-03T16:44:30.409Z,100741.00
2022-08-03T16:46:59.766Z,100738.19
2022-08-03T16:49:55.582Z,100726.13
2022-08-03T16:52:18.236Z,100730.81
2022-08-03T16:54:50.595Z,100731.41
2022-08-03T16:57:55.787Z,100727.66
2022-08-03T17:00:32.943Z,100729.44
2022-08-03T17:03:19.074Z,100728.09
2022-08-03T17:05:50.145Z,100721.94
2022-08-03T17:08:19.020Z,100726.28
2022-08-03T17:10:56.048Z,100729.69
2022-08-03T17:13:38.963Z,100723.66
2022-08-03T17:16:09.624Z,100726.63
2022-08-03T17:18:49.830Z,100732.69
2022-08-03T17:21:23.049Z,100725.91
2022-08-03T17:24:19.708Z,100737.34
2022-08-03T17:26:51.025Z,100727.34
2022-08-03T17:29:23.212Z,100724.88
2022-08-03T17:31:53.598Z,100734.81
2022-08-03T17:34:26.537Z,100741.88
2022-08-03T17:37:04.483Z,100740.97
2022-08-03T17:39:56.122Z,100741.72
2022-08-03T17:42:30.769Z,100738.25
2022-08-03T17:45:02.065Z,100739.94
2022-08-03T17:47:42.443Z,100737.56
2022-08-03T17:50:25.276Z,100742.97
2022-08-03T17:53:06.735Z,100750.38
2022-08-03T17:55:55.334Z,100751.44
2022-08-03T17:58:53.566Z,100754.03
2022-08-03T18:02:06.122Z,100755.72
2022-08-03T18:04:42.386Z,100755.13
2022-08-03T18:07:15.998Z,100761.47
2022-08-03T18:10:03.731Z,100757.91
2022-08-03T18:12:54.704Z,100759.03
2022-08-03T18:15:43.914Z,100756.88
2022-08-03T18:18:14.225Z,100756.13
2022-08-03T18:20:45.543Z,100753.72
2022-08-03T18:23:25.318Z,100755.22
2022-08-03T18:26:10.785Z,100760.19
2022-08-03T18:28:40.765Z,100762.94
2022-08-03T18:31:12.651Z,100759.97
2022-08-03T18:34:17.624Z,100760.72
2022-08-03T18:36:37.891Z,100757.69
2022-08-03T18:39:06.845Z,100758.56
2022-08-03T18:41:36.633Z,100764.72
2022-08-03T18:44:07.081Z,100764.25
2022-08-03T18:46:42.349Z,100759.66
2022-08-03T18:49:11.390Z,100751.75
2022-08-03T18:51:43.260Z,100766.25
2022-08-03T18:57:30.185Z,100758.16
2022-08-03T19:00:10.421Z,100767.47
2022-08-03T19:03:10.160Z,100762.31
2022-08-03T19:06:02.638Z,100771.03
2022-08-03T19:08:55.886Z,100778.94
2022-08-03T19:12:11.269Z,100774.13
2022-08-03T19:14:28.660Z,100770.16
2022-08-03T19:17:05.867Z,100775.69
2022-08-03T19:19:44.516Z,100780.31
2022-08-03T19:22:15.824Z,100790.81
2022-08-03T19:24:46.361Z,100782.88
2022-08-03T19:27:15.972Z,100780.22
2022-08-03T19:29:58.811Z,100793.03
2022-08-03T19:32:30.416Z,100794.00
2022-08-03T19:35:00.613Z,100793.44
2022-08-03T19:37:38.217Z,100791.94
2022-08-03T19:40:12.254Z,100791.41
2022-08-03T19:42:46.364Z,100794.22
2022-08-03T19:45:21.318Z,100799.56
2022-08-03T19:47:53.023Z,100803.81
2022-08-03T19:50:21.294Z,100801.66
2022-08-03T19:52:50.076Z,100804.47
2022-08-03T19:55:18.668Z,100809.53
2022-08-03T19:57:49.355Z,100811.53
2022-08-03T20:00:26.411Z,100822.28
2022-08-03T20:02:54.977Z,100827.41
2022-08-03T20:05:22.770Z,100822.28
2022-08-03T20:07:51.047Z,100826.34
2022-08-03T20:10:20.348Z,100822.13
2022-08-03T20:12:49.769Z,100821.78
2022-08-03T20:15:30.950Z,100832.16
2022-08-03T20:18:00.307Z,100831.13
2022-08-03T20:20:32.736Z,100824.78
2022-08-03T20:23:07.225Z,100833.56
2022-08-03T20:25:48.567Z,100831.66
2022-08-03T20:31:36.149Z,100838.47
2022-08-03T20:34:05.454Z,100831.22
2022-08-03T20:36:33.232Z,100836.81
2022-08-03T20:39:00.987Z,100835.53
2022-08-03T20:41:30.586Z,100844.63
2022-08-03T20:44:00.936Z,100835.53
2022-08-03T20:46:37.227Z,100836.38
2022-08-03T20:49:19.213Z,100838.09
2022-08-03T20:51:53.106Z,100839.16
2022-08-03T20:54:31.057Z,100841.88
2022-08-03T20:57:04.345Z,100839.16
2022-08-03T20:59:50.447Z,100836.81
2022-08-03T21:02:30.054Z,100846.31
2022-08-03T21:05:03.219Z,100836.00
2022-08-03T21:08:06.125Z,100838.94
2022-08-03T21:10:38.600Z,100842.97
2022-08-03T21:13:10.024Z,100760.66
2022-08-03T21:13:14.083Z,100828.78
2022-08-03T21:13:39.306Z,100850.75
2022-08-03T21:16:14.661Z,100847.81
2022-08-03T21:18:45.860Z,100854.78
2022-08-03T21:21:16.089Z,100859.22
2022-08-03T21:23:48.847Z,100859.44
2022-08-03T21:26:22.304Z,100852.81
2022-08-03T21:28:52.363Z,100861.69
2022-08-03T21:31:25.378Z,100851.59
2022-08-03T21:34:12.157Z,100865.53
2022-08-03T21:36:39.849Z,100863.00
2022-08-03T21:39:09.668Z,100870.41
2022-08-03T21:41:40.858Z,100860.63
2022-08-03T21:44:08.527Z,100876.03
2022-08-03T21:46:39.147Z,100864.72
2022-08-03T21:50:05.215Z,100877.69
2022-08-03T21:52:04.725Z,100881.09
2022-08-03T21:54:36.295Z,100877.75
2022-08-03T21:57:05.978Z,100876.13
2022-08-03T21:59:38.077Z,100874.78
2022-08-03T22:02:20.040Z,100881.06
2022-08-03T22:04:56.131Z,100881.50
2022-08-03T22:07:28.962Z,100884.94
2022-08-03T22:09:57.351Z,100886.09
2022-08-03T22:12:27.335Z,100888.81
2022-08-03T22:15:01.133Z,100894.63
2022-08-03T22:17:55.297Z,100897.00
2022-08-03T22:20:22.981Z,100908.19
2022-08-03T22:22:55.942Z,100900.81
2022-08-03T22:25:29.174Z,100901.66
2022-08-03T22:27:59.328Z,100904.91
2022-08-03T22:30:27.719Z,100905.13
2022-08-03T22:32:56.542Z,100903.44
2022-08-03T22:35:25.813Z,100904.91
2022-08-03T22:37:55.698Z,100900.97
2022-08-03T22:40:23.211Z,100913.19
2022-08-03T22:42:52.187Z,100906.97
2022-08-03T22:46:07.428Z,100911.28
2022-08-03T22:48:08.942Z,100905.69
2022-08-03T22:50:37.261Z,100907.06
2022-08-03T22:53:07.038Z,100908.91
2022-08-03T22:55:34.689Z,100909.16
2022-08-03T22:58:02.251Z,100914.94
2022-08-03T23:00:29.900Z,100920.63
2022-08-03T23:03:02.384Z,100923.13
2022-08-03T23:06:00.956Z,100922.91
2022-08-03T23:08:24.897Z,100924.06
2022-08-03T23:10:56.163Z,100921.09
2022-08-03T23:13:26.997Z,100927.91
2022-08-03T23:15:59.778Z,100923.69
2022-08-03T23:18:34.123Z,100933.50
2022-08-03T23:21:11.023Z,100918.94
2022-08-03T23:23:44.322Z,100932.16
2022-08-03T23:26:16.037Z,100926.94
2022-08-03T23:28:46.760Z,100927.50
2022-08-03T23:31:15.591Z,100924.97
2022-08-03T23:33:45.185Z,100926.91
2022-08-03T23:36:30.282Z,100925.03
2022-08-03T23:39:02.459Z,100923.69
2022-08-03T23:41:33.037Z,100917.25
2022-08-03T23:44:03.870Z,100923.78
2022-08-03T23:46:33.191Z,100920.28
2022-08-03T23:49:00.738Z,100926.22
2022-08-03T23:51:28.166Z,100919.75
2022-08-03T23:54:03.534Z,100921.66
2022-08-03T23:56:57.299Z,100920.25
2022-08-03T23:59:42.599Z,100920.91
